AirNav   Air Wisconsin Up To $57,000 Bonus
 
 1075 users online  

29RI Vaucluse Farm Heliport
Portsmouth, Rhode Island, USA

GOING TO PORTSMOUTH?


FAA INFORMATION EFFECTIVE 22 APRIL 2021

Location

FAA Identifier: 29RI
Lat/Long: 41-32-32.0000N 071-14-10.0000W
41-32.533333N 071-14.166667W
41.5422222,-71.2361111
(estimated)
Elevation: 40 ft. / 12 m (estimated)
From city: 4 miles S of PORTSMOUTH, RI
Time zone: UTC -4 (UTC -5 during Standard Time)
Zip code: 02871

Heliport Operations

Heliport use: Private use. Permission required prior to landing
Activation date: 12/2004
Control tower: no
ARTCC: BOSTON CENTER
FSS: BRIDGEPORT FLIGHT SERVICE STATION
Attendance: UNATNDD
Segmented circle: no

Heliport Communications

WX ASOS at UUU (2.1 nm W): 132.075 (401-846-5910)
WX ASOS at OQU (9 nm NW): 118.6
WX ASOS at PVD (14 nm NW): 124.2 (401-734-2818)
WX ASOS at EWB (15 nm NE): 126.85 (508-992-0195)

Nearby radio navigation aids

VOR radial/distance  VOR name  Freq  Var
PVDr156/14.0PROVIDENCE VOR/DME115.6014W
SEYr049/27.2SANDY POINT VOR/DME117.8015W
MVYr302/29.4MARTHAS VINEYARD VOR/DME114.5015W
ORWr105/34.3NORWICH VOR/DME110.0014W
PUTr146/36.8PUTNAM VOR/DME117.4014W
GONr085/38.8GROTON VOR/DME110.8514W

Heliport Services

Runway Information

Helipad H1

Dimensions: 30 x 30 ft. / 9 x 9 m
Surface: turf
Traffic pattern: leftleft

Heliport Ownership and Management from official FAA records

Ownership: Privately-owned
Owner: VAUCLUSE FARM
180 WAPPING ROAD
PORTSMOUTH, RI 02871
Phone 973-273-7564
Manager: WILLIAM STEEVES
180 WAPPING RD
PORTSMOUTH, RI 02840
Phone (401) 255-1793

Additional Remarks

OWNER DESIRES HELIPORT NOT BE CHARTED.
FOR CD CTC PROVIDENCE APCH AT 401-738-8945, WHEN APCH CLSD CTC BOSTON ARTCC AT 603-879-6859.

Instrument Procedures

There are no published instrument procedures at 29RI.

Some nearby airports with instrument procedures:

KUUU - Newport State Airport (2 nm W)
KOQU - Quonset State Airport (9 nm NW)
KPVD - Theodore Francis Green State Airport (14 nm NW)
KEWB - New Bedford Regional Airport (15 nm NE)
KTAN - Taunton Municipal Airport - King Field (22 nm NE)
 
Loc | Ops | Rwys | IFR | FBO | Links
Com | Nav | Svcs | Stats | Notes
Area around 29RI (Vaucluse Farm Heliport)
 
Road maps at: MapQuest Bing Google
 
Aerial photo
No photo
 
Sectional chart

 
Airport distance calculator
Flying to Vaucluse Farm Heliport? Find the distance to fly.

From to 29RI

Sunrise and sunset
Times for 16-May-2021
 Local
(UTC-4)
 Zulu
(UTC)
Morning civil twilight04:5408:54
Sunrise05:2609:26
Sunset19:5723:57
Evening civil twilight20:2900:29

Current date and time
Zulu (UTC)  17-May-2021 01:54:14
Local (UTC-4)  16-May-2021 21:54:14
 
METAR
KUUU 
2nm W 
170053Z AUTO 00000KT 10SM BKN110 15/06 A3024 RMK AO2 SLP238 T01500061
KOQU 
9nm NW 
162150Z 23015KT 10SM SCT150 21/07 A3019 RMK LAST
KPVD 
14nm NW 
170051Z 00000KT 10SM BKN100 BKN120 16/10 A3023 RMK AO2 SLP237 T01610100
KEWB 
15nm NE 
170053Z 20004KT 10SM BKN110 14/08 A3023 RMK AO2 SLP237 T01440083
TAF
KPVD 
14nm NW 
162108Z 1621/1718 20008KT P6SM SCT050 BKN110 BKN150 FM170300 24003KT P6SM SCT100 FM171700 19006KT P6SM SCT050
NOTAMs
Click for the latest NOTAMs
NOTAMs are issued by the DoD/FAA and will open in a separate window not controlled by AirNav.

 

 
 

Would you like to see your business listed on this page?

 If your business provides an interesting product or service to pilots, flight crews, aircraft, or users of the Vaucluse Farm Heliport, you should consider listing it here.  To start the listing process, click on the button below
 
Add a business
 

Other Pages about Vaucluse Farm Heliport

Update a link
 
Copyright © AirNav, LLC. All rights reserved. Privacy Policy  Contact